Time;durP1;ratioP1;P1;durP2;ratioP2;P2;SDS_P1;SDS_P2;PMS_P1;PMS_P2;Temp;Humidity;BMP_temperature;BMP_pressure;BME280_temperature;BME280_humidity;BME280_pressure;Samples;Min_cycle;Max_cycle;Signal;HPM_P1;HPM_P2
2023/06/10 00:00:51;;;;;;;4.93;4.40;;;23.30;51.90;;;;;;5087191;28;20388;-69
2023/06/10 00:03:17;;;;;;;5.40;4.40;;;23.20;51.90;;;;;;5082559;28;20025;-69
2023/06/10 00:05:43;;;;;;;4.95;4.45;;;23.30;52.00;;;;;;5085249;28;20020;-68
2023/06/10 00:08:08;;;;;;;5.60;4.63;;;23.20;52.00;;;;;;5088013;28;20028;-68
2023/06/10 00:10:35;;;;;;;5.55;4.55;;;23.20;52.10;;;;;;5080225;28;20028;-68
2023/06/10 00:13:03;;;;;;;5.25;4.00;;;23.10;52.20;;;;;;5084027;28;20114;-68
2023/06/10 00:15:29;;;;;;;6.93;4.90;;;23.10;52.10;;;;;;5076456;27;20025;-68
2023/06/10 00:17:54;;;;;;;5.63;4.80;;;23.00;52.20;;;;;;5084787;28;20410;-68
2023/06/10 00:20:21;;;;;;;5.70;4.70;;;23.00;52.10;;;;;;5085486;28;20097;-69
2023/06/10 00:22:48;;;;;;;4.88;4.35;;;23.00;52.00;;;;;;5088739;28;20018;-68
2023/06/10 00:25:14;;;;;;;5.15;4.50;;;23.00;51.90;;;;;;5083293;28;20013;-68
2023/06/10 00:27:39;;;;;;;6.25;4.30;;;23.00;51.70;;;;;;5081228;28;20095;-68
2023/06/10 00:30:06;;;;;;;5.93;4.65;;;22.90;51.60;;;;;;5083252;28;20763;-68
2023/06/10 00:32:36;;;;;;;9.68;4.68;;;22.90;51.70;;;;;;5078198;28;20056;-69
2023/06/10 00:35:03;;;;;;;5.13;4.30;;;22.90;51.60;;;;;;5081519;28;20091;-69
2023/06/10 00:37:29;;;;;;;4.63;4.05;;;22.80;51.50;;;;;;5085555;28;20120;-69
2023/06/10 00:39:54;;;;;;;6.65;4.32;;;22.80;51.50;;;;;;5076036;28;21575;-68
2023/06/10 00:42:22;;;;;;;4.82;4.22;;;22.80;51.40;;;;;;5084292;28;20021;-68
2023/06/10 00:44:47;;;;;;;6.65;4.28;;;22.80;51.30;;;;;;5082532;28;20025;-68
2023/06/10 00:47:13;;;;;;;7.20;4.60;;;22.70;51.20;;;;;;5086680;28;20024;-69
2023/06/10 00:49:39;;;;;;;6.25;3.90;;;22.70;51.10;;;;;;5081736;28;20033;-68
2023/06/10 00:52:06;;;;;;;5.68;3.90;;;22.80;51.00;;;;;;5083664;28;20406;-68
2023/06/10 00:54:32;;;;;;;6.22;4.30;;;22.70;50.90;;;;;;5080862;28;20031;-68
2023/06/10 00:57:01;;;;;;;5.38;4.40;;;22.70;50.80;;;;;;5080393;28;20521;-68
2023/06/10 00:59:28;;;;;;;5.53;3.78;;;22.60;50.90;;;;;;5088254;28;20055;-68
2023/06/10 01:01:55;;;;;;;7.40;4.50;;;22.60;50.70;;;;;;5079068;28;21814;-67
2023/06/10 01:04:21;;;;;;;4.53;4.05;;;22.60;50.90;;;;;;5075268;28;20034;-67
2023/06/10 01:07:05;;;;;;;5.22;4.00;;;22.50;50.80;;;;;;5079984;28;20020;-67
2023/06/10 01:09:43;;;;;;;4.07;3.58;;;22.50;50.70;;;;;;5075692;28;20067;-67
2023/06/10 01:12:15;;;;;;;5.07;4.10;;;22.60;50.80;;;;;;5085369;28;20052;-67
2023/06/10 01:14:44;;;;;;;6.68;4.63;;;22.50;50.70;;;;;;5075962;28;20016;-68
2023/06/10 01:17:11;;;;;;;4.93;4.05;;;22.50;50.60;;;;;;5078369;28;20044;-67
2023/06/10 01:19:37;;;;;;;6.40;4.47;;;22.40;50.80;;;;;;5082575;28;20082;-67
2023/06/10 01:22:03;;;;;;;5.80;4.50;;;22.30;50.90;;;;;;5086410;28;20024;-68
2023/06/10 01:24:32;;;;;;;7.22;4.30;;;22.20;51.00;;;;;;5083413;28;20032;-68
2023/06/10 01:27:01;;;;;;;5.47;4.32;;;22.20;51.00;;;;;;5079306;28;20028;-68
2023/06/10 01:29:52;;;;;;;7.68;4.57;;;22.20;51.20;;;;;;5077328;28;20036;-68
2023/06/10 01:32:26;;;;;;;5.07;4.10;;;22.20;51.20;;;;;;5095646;28;20551;-69
2023/06/10 01:34:52;;;;;;;5.25;4.13;;;22.10;51.30;;;;;;5075543;28;20096;-68
2023/06/10 01:37:20;;;;;;;7.07;4.68;;;22.10;51.30;;;;;;5075244;28;20016;-69
2023/06/10 01:39:48;;;;;;;5.00;4.25;;;22.10;51.40;;;;;;5076095;28;20028;-68
2023/06/10 01:42:15;;;;;;;4.70;3.80;;;22.10;51.50;;;;;;5078225;28;20066;-69
2023/06/10 01:44:41;;;;;;;5.57;4.30;;;22.10;51.30;;;;;;5070862;28;20663;-68
2023/06/10 01:47:08;;;;;;;5.93;4.10;;;22.00;51.50;;;;;;5082172;28;20036;-68
2023/06/10 01:49:34;;;;;;;6.40;4.25;;;22.00;51.60;;;;;;5081072;28;20039;-67
2023/06/10 01:52:00;;;;;;;5.35;4.13;;;22.00;51.50;;;;;;5077044;28;20027;-67
2023/06/10 01:54:25;;;;;;;5.82;3.80;;;22.00;51.60;;;;;;5082314;28;20031;-68
2023/06/10 01:56:51;;;;;;;5.47;4.30;;;21.90;51.70;;;;;;5079371;28;20027;-69
2023/06/10 01:59:17;;;;;;;19.15;11.30;;;21.90;52.00;;;;;;5074783;28;20368;-69
2023/06/10 02:01:42;;;;;;;9.45;6.45;;;21.80;52.10;;;;;;5077181;28;20033;-70
2023/06/10 02:04:08;;;;;;;5.53;4.60;;;21.80;52.20;;;;;;5086560;28;20092;-70
2023/06/10 02:06:35;;;;;;;5.88;4.30;;;21.70;52.50;;;;;;5079212;28;20478;-69
2023/06/10 02:09:00;;;;;;;10.13;4.38;;;21.70;52.80;;;;;;5083096;28;20031;-69
2023/06/10 02:11:26;;;;;;;5.07;4.05;;;21.70;53.00;;;;;;5080195;28;20029;-69
2023/06/10 02:13:52;;;;;;;5.90;3.90;;;21.60;53.00;;;;;;5080406;28;20028;-69
2023/06/10 02:16:18;;;;;;;7.07;4.30;;;21.60;53.00;;;;;;5083444;28;20016;-69
2023/06/10 02:18:44;;;;;;;6.43;4.00;;;21.60;53.30;;;;;;5073686;28;20070;-69
2023/06/10 02:21:10;;;;;;;4.90;3.85;;;21.50;53.40;;;;;;5082467;28;20060;-69
2023/06/10 02:23:35;;;;;;;5.47;3.78;;;21.60;53.40;;;;;;5077284;28;20465;-69
2023/06/10 02:26:02;;;;;;;6.22;4.40;;;21.50;53.50;;;;;;5082766;28;21505;-68
2023/06/10 02:28:27;;;;;;;6.55;4.03;;;21.40;54.00;;;;;;5075797;28;20036;-68
2023/06/10 02:30:53;;;;;;;7.38;4.63;;;21.40;54.20;;;;;;5073201;28;20426;-69
2023/06/10 02:33:19;;;;;;;7.10;4.80;;;21.30;54.60;;;;;;5080684;28;20020;-69
2023/06/10 02:35:45;;;;;;;5.03;4.10;;;21.20;55.10;;;;;;5085182;28;20493;-69
2023/06/10 02:38:10;;;;;;;6.95;4.18;;;21.20;55.10;;;;;;5080368;28;20107;-69
2023/06/10 02:40:36;;;;;;;6.85;4.55;;;21.20;55.20;;;;;;5071827;28;20020;-69
2023/06/10 02:43:02;;;;;;;5.78;4.10;;;21.10;55.40;;;;;;5081346;28;20406;-69
2023/06/10 02:45:27;;;;;;;6.57;4.75;;;21.10;55.60;;;;;;5076512;28;20024;-68
2023/06/10 02:47:53;;;;;;;5.53;4.25;;;21.00;55.90;;;;;;5079137;28;20025;-68
2023/06/10 02:50:18;;;;;;;7.25;4.60;;;21.10;55.70;;;;;;5083829;28;20526;-68
2023/06/10 02:52:44;;;;;;;7.38;4.00;;;21.00;55.70;;;;;;5074854;28;20032;-68
2023/06/10 02:55:10;;;;;;;6.43;4.25;;;21.00;55.70;;;;;;5079173;28;20020;-68
2023/06/10 02:57:35;;;;;;;6.03;4.10;;;21.00;55.70;;;;;;5072282;28;20059;-68
2023/06/10 03:00:04;;;;;;;5.85;4.47;;;21.00;55.90;;;;;;5080164;28;20042;-67
2023/06/10 03:02:31;;;;;;;5.68;4.28;;;21.00;56.20;;;;;;5077906;28;20089;-67
2023/06/10 03:04:57;;;;;;;4.90;3.95;;;21.00;56.20;;;;;;5078864;28;20449;-67
2023/06/10 03:07:23;;;;;;;6.40;4.50;;;21.00;56.30;;;;;;5081409;28;20389;-68
2023/06/10 03:09:49;;;;;;;7.15;4.78;;;21.00;56.30;;;;;;5083694;28;20037;-68
2023/06/10 03:12:15;;;;;;;5.28;4.30;;;20.90;56.40;;;;;;5080199;28;20032;-68
2023/06/10 03:14:41;;;;;;;8.55;5.38;;;20.90;56.50;;;;;;5077082;28;20111;-68
2023/06/10 03:17:08;;;;;;;7.05;4.35;;;20.80;57.00;;;;;;5075231;28;20031;-68
2023/06/10 03:19:34;;;;;;;6.90;3.95;;;20.70;57.10;;;;;;5071557;28;20031;-68
2023/06/10 03:22:13;;;;;;;5.97;4.22;;;20.70;57.00;;;;;;5079090;28;20486;-68
2023/06/10 03:24:40;;;;;;;7.05;4.50;;;20.70;57.00;;;;;;5070957;28;20506;-68
2023/06/10 03:27:13;;;;;;;5.40;4.00;;;20.60;57.90;;;;;;5077282;28;20031;-68
2023/06/10 03:29:39;;;;;;;8.32;4.57;;;20.60;57.20;;;;;;5074575;28;20078;-68
2023/06/10 03:32:05;;;;;;;8.50;4.75;;;20.60;57.30;;;;;;5083739;28;20028;-67
2023/06/10 03:34:31;;;;;;;10.07;4.93;;;20.60;57.40;;;;;;5084673;28;20056;-68
2023/06/10 03:36:57;;;;;;;8.15;5.05;;;20.50;58.00;;;;;;5078601;28;20052;-68
2023/06/10 03:39:23;;;;;;;6.28;4.50;;;20.40;58.10;;;;;;5080342;28;20017;-68
2023/06/10 03:41:49;;;;;;;7.85;4.80;;;20.40;58.20;;;;;;5087748;28;20498;-68
2023/06/10 03:44:15;;;;;;;6.45;4.57;;;20.30;58.30;;;;;;5083075;28;20016;-68
2023/06/10 03:46:41;;;;;;;5.95;3.97;;;20.30;58.30;;;;;;5087969;28;20084;-69
2023/06/10 03:49:06;;;;;;;9.63;4.70;;;20.30;58.10;;;;;;5082519;28;20035;-68
2023/06/10 03:51:32;;;;;;;6.00;4.28;;;20.30;58.50;;;;;;5085414;28;20020;-68
2023/06/10 03:53:57;;;;;;;5.97;4.13;;;20.30;58.30;;;;;;5078218;28;20067;-68
2023/06/10 03:56:23;;;;;;;7.28;3.78;;;20.30;58.30;;;;;;5081196;28;20024;-68
2023/06/10 03:58:48;;;;;;;6.82;4.40;;;20.30;58.30;;;;;;5079242;28;20429;-68
2023/06/10 04:01:14;;;;;;;7.57;4.82;;;20.30;58.50;;;;;;5085918;28;20103;-68
2023/06/10 04:03:41;;;;;;;7.43;4.90;;;20.30;58.80;;;;;;5081509;28;20035;-68
2023/06/10 04:06:07;;;;;;;6.65;4.97;;;20.20;59.30;;;;;;5081404;28;20016;-68
2023/06/10 04:08:33;;;;;;;5.72;4.38;;;20.10;59.80;;;;;;5079323;28;20044;-68
2023/06/10 04:10:58;;;;;;;4.88;3.70;;;20.10;59.80;;;;;;5091175;28;20564;-68
2023/06/10 04:13:24;;;;;;;6.35;4.45;;;20.10;59.70;;;;;;5079198;28;20110;-68
2023/06/10 04:15:49;;;;;;;5.68;4.30;;;20.10;60.00;;;;;;5086150;28;20078;-68
2023/06/10 04:18:15;;;;;;;8.13;5.93;;;20.10;60.00;;;;;;5089400;28;20046;-68
2023/06/10 04:20:41;;;;;;;6.75;4.47;;;20.10;60.20;;;;;;5086283;28;20025;-68
2023/06/10 04:23:07;;;;;;;8.23;5.15;;;20.00;60.50;;;;;;5076181;28;20031;-67
2023/06/10 04:25:32;;;;;;;9.75;5.20;;;20.00;60.50;;;;;;5073209;28;20036;-67
2023/06/10 04:27:58;;;;;;;7.93;4.55;;;20.00;60.60;;;;;;5086024;28;20487;-67
2023/06/10 04:30:23;;;;;;;5.72;4.05;;;20.10;60.30;;;;;;5082948;28;20486;-68
2023/06/10 04:32:49;;;;;;;6.00;4.70;;;20.10;60.90;;;;;;5090327;28;20715;-68
2023/06/10 04:35:15;;;;;;;7.63;4.75;;;20.10;60.30;;;;;;5077825;28;20103;-68
2023/06/10 04:37:41;;;;;;;7.50;4.80;;;20.20;60.50;;;;;;5083534;28;20101;-68
2023/06/10 04:40:07;;;;;;;8.07;4.65;;;20.20;60.60;;;;;;5084520;28;20479;-68
2023/06/10 04:42:33;;;;;;;6.70;4.95;;;20.10;60.60;;;;;;5079283;28;20036;-68
2023/06/10 04:44:59;;;;;;;6.75;4.38;;;20.20;60.70;;;;;;5074403;28;20359;-67
2023/06/10 04:47:26;;;;;;;6.30;5.00;;;20.20;60.50;;;;;;5099865;28;20031;-67
2023/06/10 04:49:52;;;;;;;6.95;4.80;;;20.30;60.50;;;;;;5086373;27;20017;-67
2023/06/10 04:52:18;;;;;;;7.75;5.30;;;20.40;60.40;;;;;;5081089;28;20072;-68
2023/06/10 04:54:43;;;;;;;9.30;4.65;;;20.70;59.60;;;;;;5083445;28;20050;-67
2023/06/10 04:57:11;;;;;;;8.95;4.55;;;21.10;59.00;;;;;;5079259;28;20028;-68
2023/06/10 04:59:38;;;;;;;7.55;4.80;;;21.30;58.30;;;;;;5074669;28;20050;-67
2023/06/10 05:02:04;;;;;;;7.13;4.97;;;21.70;57.50;;;;;;5087364;28;20032;-67
2023/06/10 05:04:30;;;;;;;6.72;4.93;;;21.90;56.70;;;;;;5082570;28;20034;-67
2023/06/10 05:06:56;;;;;;;6.13;4.47;;;22.10;56.30;;;;;;5078587;28;20028;-67
2023/06/10 05:09:21;;;;;;;7.30;4.60;;;22.30;56.00;;;;;;5084461;28;20394;-67
2023/06/10 05:11:47;;;;;;;7.57;4.70;;;22.30;55.60;;;;;;5080619;28;20025;-67
2023/06/10 05:14:13;;;;;;;8.57;4.50;;;22.50;55.60;;;;;;5080404;28;20016;-67
2023/06/10 05:16:38;;;;;;;6.60;4.32;;;22.60;55.20;;;;;;5082809;28;20027;-67
2023/06/10 05:19:04;;;;;;;7.43;5.15;;;22.70;55.20;;;;;;5082397;28;20012;-68
2023/06/10 05:21:30;;;;;;;6.63;4.90;;;22.70;55.00;;;;;;5072857;28;20386;-67
2023/06/10 05:23:55;;;;;;;9.07;5.03;;;22.90;54.60;;;;;;5081439;28;20032;-68
2023/06/10 05:26:21;;;;;;;6.35;4.45;;;22.90;54.60;;;;;;5078804;28;20024;-68
2023/06/10 05:28:47;;;;;;;7.45;5.15;;;22.90;54.50;;;;;;5078263;28;20047;-68
2023/06/10 05:31:13;;;;;;;6.38;4.60;;;22.80;54.20;;;;;;5077118;28;20032;-68
2023/06/10 05:33:39;;;;;;;7.95;4.60;;;22.80;54.70;;;;;;5079456;28;20031;-68
2023/06/10 05:36:05;;;;;;;7.97;4.15;;;22.90;54.50;;;;;;5079813;28;20032;-67
2023/06/10 05:38:30;;;;;;;7.18;4.68;;;23.10;54.40;;;;;;5076909;28;20024;-67
2023/06/10 05:40:56;;;;;;;7.20;4.38;;;23.20;54.10;;;;;;5077310;28;20445;-69
2023/06/10 05:43:22;;;;;;;8.02;5.38;;;23.40;53.90;;;;;;5076699;28;20020;-68
2023/06/10 05:45:48;;;;;;;10.13;5.13;;;23.40;53.80;;;;;;5083205;28;20406;-69
2023/06/10 05:48:13;;;;;;;6.05;3.90;;;23.40;53.60;;;;;;5076873;28;20020;-69
2023/06/10 05:50:42;;;;;;;7.13;4.10;;;23.30;53.90;;;;;;5075926;28;20063;-70
2023/06/10 05:53:14;;;;;;;5.50;3.95;;;23.40;53.80;;;;;;5074649;28;20074;-70
2023/06/10 05:55:42;;;;;;;7.55;4.80;;;23.50;53.50;;;;;;5083338;28;20058;-68
2023/06/10 05:58:07;;;;;;;6.18;4.40;;;23.50;53.20;;;;;;5072064;28;20493;-68
2023/06/10 06:00:33;;;;;;;4.70;3.70;;;23.30;53.40;;;;;;5070973;28;20028;-68
2023/06/10 06:02:58;;;;;;;7.95;4.57;;;23.30;53.70;;;;;;5080930;28;20105;-68
2023/06/10 06:05:24;;;;;;;7.35;4.60;;;23.30;53.60;;;;;;5080722;28;20034;-68
2023/06/10 06:07:50;;;;;;;7.80;4.40;;;23.20;53.40;;;;;;5080029;28;20016;-68
2023/06/10 06:10:17;;;;;;;6.40;4.43;;;23.30;53.30;;;;;;5079244;28;20024;-67
2023/06/10 06:12:43;;;;;;;7.40;3.88;;;23.30;53.10;;;;;;5083943;28;20028;-68
2023/06/10 06:15:10;;;;;;;5.45;4.28;;;23.20;53.40;;;;;;5087423;28;20100;-69
2023/06/10 06:17:35;;;;;;;5.95;4.03;;;23.20;53.20;;;;;;5075653;28;20028;-68
2023/06/10 06:20:02;;;;;;;6.45;4.20;;;23.20;53.30;;;;;;5077722;28;20020;-69
2023/06/10 06:22:27;;;;;;;5.78;3.70;;;23.40;53.20;;;;;;5079842;28;20028;-68
2023/06/10 06:24:53;;;;;;;5.35;4.50;;;23.50;53.00;;;;;;5079880;28;20031;-68
2023/06/10 06:27:18;;;;;;;5.60;4.20;;;23.60;52.20;;;;;;5075782;28;20078;-68
2023/06/10 06:29:45;;;;;;;6.57;4.32;;;23.60;52.40;;;;;;5080551;28;20136;-69
2023/06/10 06:32:11;;;;;;;6.13;4.13;;;23.70;52.40;;;;;;5074739;28;20091;-67
2023/06/10 06:34:36;;;;;;;8.25;4.50;;;23.70;52.10;;;;;;5082709;28;20434;-68
2023/06/10 06:37:02;;;;;;;6.90;4.25;;;23.80;52.20;;;;;;5077073;28;20016;-68
2023/06/10 06:39:27;;;;;;;5.00;3.80;;;23.90;52.10;;;;;;5077209;28;20026;-67
2023/06/10 06:41:53;;;;;;;6.60;4.13;;;24.00;52.10;;;;;;5086297;28;20080;-67
2023/06/10 06:44:19;;;;;;;6.05;3.83;;;24.00;51.80;;;;;;5087646;28;20486;-68
2023/06/10 06:46:45;;;;;;;5.80;3.78;;;24.00;51.80;;;;;;5072123;28;20055;-67
2023/06/10 06:49:10;;;;;;;6.35;4.47;;;24.20;51.60;;;;;;5082421;28;20024;-70
2023/06/10 06:51:37;;;;;;;6.03;4.30;;;24.30;51.80;;;;;;5071595;28;20027;-69
2023/06/10 06:54:02;;;;;;;5.82;4.15;;;24.20;51.30;;;;;;5077997;28;20495;-69
2023/06/10 06:56:28;;;;;;;5.90;4.25;;;24.30;51.20;;;;;;5077819;28;20024;-70
2023/06/10 06:58:54;;;;;;;5.80;4.00;;;24.20;51.20;;;;;;5081518;28;20017;-70
2023/06/10 07:01:20;;;;;;;7.15;4.15;;;24.20;51.40;;;;;;5086147;28;20035;-67
2023/06/10 07:03:45;;;;;;;7.53;4.05;;;24.30;50.70;;;;;;5081665;28;20036;-69
2023/06/10 07:06:13;;;;;;;6.28;4.03;;;24.20;51.00;;;;;;5081587;28;20056;-68
2023/06/10 07:08:38;;;;;;;6.30;4.68;;;24.30;51.30;;;;;;5079500;28;20027;-68
2023/06/10 07:11:04;;;;;;;6.35;4.15;;;24.20;50.90;;;;;;5079333;28;20020;-69
2023/06/10 07:13:29;;;;;;;7.18;4.07;;;24.20;51.00;;;;;;5085464;28;20023;-68
2023/06/10 07:15:55;;;;;;;5.50;3.75;;;24.30;51.20;;;;;;5083081;28;20109;-69
2023/06/10 07:18:21;;;;;;;6.72;3.92;;;24.40;50.90;;;;;;5079925;28;20027;-69
2023/06/10 07:20:46;;;;;;;6.80;4.07;;;24.50;50.60;;;;;;5079342;28;20031;-69
2023/06/10 07:23:12;;;;;;;4.60;3.13;;;24.70;50.80;;;;;;5076423;28;20016;-70
2023/06/10 07:25:37;;;;;;;6.10;3.58;;;25.10;50.20;;;;;;5082925;28;20048;-69
2023/06/10 07:28:03;;;;;;;4.45;3.55;;;25.30;49.70;;;;;;5081579;28;20024;-69
2023/06/10 07:30:29;;;;;;;6.78;4.13;;;25.50;49.40;;;;;;5084974;28;20055;-71
2023/06/10 07:32:55;;;;;;;7.22;3.90;;;25.60;47.90;;;;;;5078242;28;20466;-70
2023/06/10 07:35:21;;;;;;;6.53;4.10;;;25.50;48.20;;;;;;5084504;28;20051;-68
2023/06/10 07:37:47;;;;;;;5.57;3.35;;;25.60;48.10;;;;;;5077081;28;20060;-68
2023/06/10 07:40:12;;;;;;;6.97;4.10;;;25.60;48.20;;;;;;5078795;28;20498;-68
2023/06/10 07:42:38;;;;;;;5.32;4.07;;;25.80;48.00;;;;;;5082395;28;20030;-67
2023/06/10 07:45:04;;;;;;;5.93;4.00;;;25.90;47.80;;;;;;5088334;28;20085;-69
2023/06/10 07:47:30;;;;;;;6.47;3.97;;;26.00;47.80;;;;;;5081963;28;20104;-68
2023/06/10 07:49:55;;;;;;;6.07;4.47;;;26.20;47.50;;;;;;5080575;28;20116;-69
2023/06/10 07:52:21;;;;;;;6.75;4.32;;;26.20;47.10;;;;;;5078961;28;20032;-69
2023/06/10 07:54:46;;;;;;;4.80;3.70;;;26.00;47.20;;;;;;5077058;28;20028;-69
2023/06/10 07:57:12;;;;;;;5.88;3.97;;;25.90;47.50;;;;;;5077337;28;20024;-69
2023/06/10 07:59:38;;;;;;;4.70;3.45;;;26.00;47.30;;;;;;5068097;28;20020;-68
2023/06/10 08:02:04;;;;;;;4.88;3.35;;;26.10;47.50;;;;;;5075798;28;20499;-69
2023/06/10 08:04:30;;;;;;;5.10;3.80;;;26.20;47.40;;;;;;5076318;28;20107;-68
2023/06/10 08:06:56;;;;;;;8.90;5.55;;;26.30;46.90;;;;;;5078806;28;20460;-69
2023/06/10 08:09:23;;;;;;;4.68;3.20;;;26.30;46.90;;;;;;5081320;28;20078;-68
2023/06/10 08:11:48;;;;;;;5.20;3.72;;;26.40;47.20;;;;;;5079104;28;20040;-69
2023/06/10 08:14:14;;;;;;;6.57;4.00;;;26.80;47.10;;;;;;5075664;28;20063;-68
2023/06/10 08:16:40;;;;;;;4.75;3.47;;;26.90;46.50;;;;;;5081047;28;20112;-69
2023/06/10 08:19:05;;;;;;;4.93;3.60;;;27.00;46.50;;;;;;5086700;28;20684;-69
2023/06/10 08:21:32;;;;;;;6.05;3.72;;;27.10;46.30;;;;;;5090552;27;20410;-69
2023/06/10 08:23:57;;;;;;;6.88;3.65;;;27.20;45.90;;;;;;5076922;28;20032;-68
2023/06/10 08:26:24;;;;;;;5.75;4.45;;;27.40;46.10;;;;;;5084068;28;20383;-69
2023/06/10 08:28:50;;;;;;;6.07;3.75;;;27.50;45.40;;;;;;5084396;28;20035;-69
2023/06/10 08:31:15;;;;;;;4.85;3.60;;;27.50;45.60;;;;;;5084155;28;20021;-68
2023/06/10 08:33:42;;;;;;;5.28;4.07;;;27.60;45.30;;;;;;5075122;28;20020;-69
2023/06/10 08:36:07;;;;;;;5.45;3.70;;;27.60;45.20;;;;;;5077500;28;20025;-69
2023/06/10 08:38:34;;;;;;;4.55;3.20;;;27.60;45.20;;;;;;5075674;28;20028;-69
2023/06/10 08:41:00;;;;;;;5.55;3.60;;;27.70;45.30;;;;;;5079911;28;20033;-69
2023/06/10 08:43:26;;;;;;;4.28;3.67;;;27.70;44.70;;;;;;5079174;28;20028;-69
2023/06/10 08:45:55;;;;;;;3.85;3.28;;;27.80;44.80;;;;;;5077257;28;20732;-68
2023/06/10 08:48:21;;;;;;;6.30;3.85;;;27.90;44.70;;;;;;5080581;28;20413;-69
2023/06/10 08:50:49;;;;;;;5.28;3.70;;;27.80;44.30;;;;;;5082705;28;20023;-68
2023/06/10 08:53:18;;;;;;;4.95;3.92;;;27.70;44.20;;;;;;5081036;28;20146;-69
2023/06/10 08:55:49;;;;;;;5.28;3.70;;;27.60;44.00;;;;;;5082088;28;20029;-68
2023/06/10 08:58:15;;;;;;;5.38;3.40;;;27.60;43.80;;;;;;5084142;28;20556;-69
2023/06/10 09:00:41;;;;;;;4.85;3.58;;;27.50;44.10;;;;;;5085204;28;20071;-68
2023/06/10 09:03:08;;;;;;;4.15;3.30;;;27.60;44.30;;;;;;5084590;28;20095;-69
2023/06/10 09:05:36;;;;;;;6.72;3.70;;;27.90;44.40;;;;;;5077436;28;20509;-69
2023/06/10 09:08:02;;;;;;;8.38;3.67;;;28.00;44.30;;;;;;5084056;28;20020;-69
2023/06/10 09:10:27;;;;;;;6.07;3.78;;;28.00;44.10;;;;;;5084369;28;20031;-68
2023/06/10 09:12:53;;;;;;;5.22;3.60;;;28.00;43.90;;;;;;5081648;28;20123;-69
2023/06/10 09:15:20;;;;;;;7.03;3.80;;;28.10;43.70;;;;;;5081337;28;20497;-69
2023/06/10 09:17:46;;;;;;;5.60;3.90;;;28.10;43.80;;;;;;5079411;28;20035;-69
2023/06/10 09:20:11;;;;;;;4.95;3.67;;;28.10;43.80;;;;;;5079424;28;20470;-67
2023/06/10 09:22:37;;;;;;;6.30;3.65;;;28.10;43.00;;;;;;5085264;28;20046;-67
2023/06/10 09:25:10;;;;;;;4.47;3.33;;;28.10;43.30;;;;;;5080505;28;20032;-67
2023/06/10 09:27:50;;;;;;;6.72;3.95;;;28.30;43.40;;;;;;5081411;28;20021;-67
2023/06/10 09:30:33;;;;;;;4.43;3.50;;;28.30;43.50;;;;;;5082375;28;20034;-67
2023/06/10 09:33:01;;;;;;;5.70;3.67;;;28.50;43.30;;;;;;5079321;28;20043;-67
2023/06/10 09:35:28;;;;;;;4.55;3.30;;;28.40;42.80;;;;;;5079486;28;20382;-67
2023/06/10 09:37:58;;;;;;;3.95;3.25;;;28.50;43.00;;;;;;5078618;28;20054;-67
2023/06/10 09:40:25;;;;;;;5.05;3.40;;;28.70;43.00;;;;;;5080586;28;20028;-67
2023/06/10 09:42:58;;;;;;;4.40;3.47;;;28.90;42.90;;;;;;5082409;28;20028;-67
2023/06/10 09:45:30;;;;;;;4.40;3.50;;;29.10;42.50;;;;;;5081211;28;20060;-67
2023/06/10 09:47:56;;;;;;;4.85;3.40;;;29.30;42.00;;;;;;5079619;28;20028;-67
2023/06/10 09:50:21;;;;;;;5.65;3.65;;;29.40;41.70;;;;;;5081758;28;20510;-67
2023/06/10 09:52:48;;;;;;;5.15;3.45;;;29.60;41.30;;;;;;5087428;28;20111;-67
2023/06/10 09:55:14;;;;;;;7.60;3.60;;;29.60;41.10;;;;;;5083577;28;20024;-67
2023/06/10 09:57:41;;;;;;;4.65;3.65;;;29.40;40.70;;;;;;5083396;28;20107;-67
2023/06/10 10:00:09;;;;;;;5.30;4.10;;;29.20;40.50;;;;;;5082233;28;20051;-67
2023/06/10 10:02:49;;;;;;;6.50;3.90;;;29.20;40.70;;;;;;5082941;28;20020;-67
2023/06/10 10:05:16;;;;;;;5.32;3.50;;;29.20;41.00;;;;;;5083075;28;20109;-67
2023/06/10 10:07:42;;;;;;;4.15;3.20;;;29.30;40.00;;;;;;5085855;28;20649;-68
2023/06/10 10:10:08;;;;;;;5.10;3.67;;;29.30;40.60;;;;;;5080966;28;20024;-67
2023/06/10 10:12:36;;;;;;;4.95;3.45;;;29.50;40.50;;;;;;5079153;28;20040;-67
2023/06/10 10:15:02;;;;;;;4.68;3.70;;;29.60;40.30;;;;;;5082126;28;20032;-67
2023/06/10 10:17:29;;;;;;;4.80;3.72;;;29.40;38.70;;;;;;5079540;28;20019;-67
2023/06/10 10:20:02;;;;;;;4.68;3.33;;;29.30;38.80;;;;;;5079383;28;20031;-67
2023/06/10 10:22:35;;;;;;;4.35;3.20;;;29.30;38.90;;;;;;5082594;28;20102;-67
2023/06/10 10:25:03;;;;;;;5.47;3.90;;;29.20;38.60;;;;;;5078246;28;20025;-67
2023/06/10 10:27:54;;;;;;;4.57;3.58;;;29.30;38.70;;;;;;5083000;28;20039;-67
2023/06/10 10:30:21;;;;;;;4.50;3.40;;;29.20;38.40;;;;;;5079920;28;20032;-67
2023/06/10 10:32:56;;;;;;;4.78;3.33;;;29.10;38.40;;;;;;5081723;28;20491;-67
2023/06/10 10:35:24;;;;;;;4.80;3.58;;;29.00;37.80;;;;;;5081823;28;20516;-67
2023/06/10 10:37:54;;;;;;;5.25;3.25;;;29.10;38.10;;;;;;5081695;28;20395;-67
2023/06/10 10:40:23;;;;;;;4.72;3.47;;;29.30;37.50;;;;;;5080799;28;20024;-67
2023/06/10 10:42:49;;;;;;;6.45;3.20;;;29.30;37.40;;;;;;5078297;28;21307;-67
2023/06/10 10:45:15;;;;;;;5.00;3.25;;;29.30;36.40;;;;;;5082547;28;20483;-67
2023/06/10 10:47:44;;;;;;;5.40;3.22;;;29.30;36.10;;;;;;5081685;28;20021;-67
2023/06/10 10:50:17;;;;;;;6.53;3.50;;;29.40;36.50;;;;;;5077944;28;20031;-67
2023/06/10 10:52:58;;;;;;;6.10;3.53;;;29.60;36.30;;;;;;5080339;28;20368;-67
2023/06/10 10:55:25;;;;;;;4.30;3.20;;;29.70;36.40;;;;;;5082357;28;20554;-67
2023/06/10 10:58:07;;;;;;;3.75;2.97;;;29.70;35.20;;;;;;5086256;28;20043;-67
2023/06/10 11:00:37;;;;;;;3.67;3.10;;;29.80;35.40;;;;;;5075620;28;20119;-67
2023/06/10 11:03:03;;;;;;;4.43;2.83;;;30.00;35.20;;;;;;5079160;28;20077;-67
2023/06/10 11:05:48;;;;;;;4.32;2.83;;;30.10;35.00;;;;;;5079809;28;20433;-68
2023/06/10 11:08:33;;;;;;;4.22;2.95;;;30.30;35.50;;;;;;5081867;28;20021;-67
2023/06/10 11:10:59;;;;;;;5.75;2.90;;;30.30;35.10;;;;;;5081268;28;20534;-67
2023/06/10 11:13:26;;;;;;;5.07;3.10;;;30.50;35.30;;;;;;5084390;28;20027;-67
2023/06/10 11:15:57;;;;;;;6.47;3.65;;;30.80;35.40;;;;;;5080731;28;20028;-67
2023/06/10 11:18:31;;;;;;;3.33;2.93;;;31.00;34.50;;;;;;5087496;28;20486;-67
2023/06/10 11:21:06;;;;;;;5.03;3.30;;;31.00;34.50;;;;;;5086590;28;20281;-67
2023/06/10 11:23:33;;;;;;;3.97;3.30;;;31.00;34.20;;;;;;5081157;28;20020;-67
2023/06/10 11:26:13;;;;;;;3.72;3.30;;;30.80;34.20;;;;;;5084926;28;20054;-67
2023/06/10 11:28:40;;;;;;;3.88;3.20;;;30.80;34.00;;;;;;5076562;28;20027;-68
2023/06/10 11:31:06;;;;;;;4.72;2.95;;;30.70;34.00;;;;;;5078597;28;20489;-68
2023/06/10 11:33:32;;;;;;;4.97;3.55;;;31.00;34.60;;;;;;5075608;28;20028;-68
2023/06/10 11:36:01;;;;;;;3.72;3.20;;;31.20;34.10;;;;;;5077654;28;20024;-68
2023/06/10 11:38:26;;;;;;;4.57;3.53;;;31.20;33.90;;;;;;5076270;28;21412;-68
2023/06/10 11:40:52;;;;;;;5.03;3.45;;;31.40;33.50;;;;;;5085731;28;20107;-68
2023/06/10 11:43:18;;;;;;;4.50;3.15;;;31.50;33.50;;;;;;5080718;28;20027;-67
2023/06/10 11:45:44;;;;;;;4.40;3.60;;;31.40;33.40;;;;;;5080392;28;20559;-68
2023/06/10 11:48:12;;;;;;;4.65;3.33;;;31.40;33.40;;;;;;5080392;28;20490;-68
2023/06/10 11:50:37;;;;;;;3.55;3.08;;;31.20;33.50;;;;;;5081734;28;20441;-68
2023/06/10 11:53:03;;;;;;;5.35;3.72;;;31.30;33.90;;;;;;5078150;28;20028;-68
2023/06/10 11:55:45;;;;;;;3.90;3.10;;;31.20;33.70;;;;;;5088420;28;20028;-68
2023/06/10 11:58:19;;;;;;;3.92;3.10;;;31.20;34.30;;;;;;5088482;28;20032;-68
2023/06/10 12:01:01;;;;;;;4.40;3.47;;;31.40;34.20;;;;;;5080780;28;20104;-68
2023/06/10 12:03:35;;;;;;;3.88;3.38;;;31.20;33.80;;;;;;5082379;28;20024;-68
2023/06/10 12:06:02;;;;;;;3.88;3.47;;;31.20;34.20;;;;;;5082651;28;20674;-68
2023/06/10 12:08:27;;;;;;;3.78;3.20;;;31.40;34.20;;;;;;5081838;28;20021;-68
2023/06/10 12:10:55;;;;;;;4.22;3.38;;;31.80;34.00;;;;;;5080955;28;20028;-68
2023/06/10 12:13:21;;;;;;;3.70;3.25;;;32.00;33.40;;;;;;5085935;28;20028;-68
2023/06/10 12:15:47;;;;;;;5.85;3.92;;;32.10;33.50;;;;;;5083851;28;20032;-68
2023/06/10 12:18:23;;;;;;;5.53;3.88;;;32.20;32.90;;;;;;5083494;28;20683;-68
2023/06/10 12:20:50;;;;;;;5.25;3.45;;;32.20;33.30;;;;;;5088071;28;20059;-68
2023/06/10 12:23:17;;;;;;;5.47;3.90;;;32.50;33.30;;;;;;5084152;28;20029;-68
2023/06/10 12:25:53;;;;;;;5.30;4.00;;;32.50;32.70;;;;;;5089038;28;20078;-68
2023/06/10 12:28:23;;;;;;;3.80;3.28;;;32.40;32.80;;;;;;5087799;28;20063;-68
2023/06/10 12:30:49;;;;;;;3.83;3.43;;;32.30;33.10;;;;;;5082421;28;20056;-68
2023/06/10 12:33:20;;;;;;;5.10;3.50;;;32.30;33.00;;;;;;5084853;28;20020;-68
2023/06/10 12:35:50;;;;;;;5.93;3.67;;;32.30;33.00;;;;;;5084571;28;20032;-68
2023/06/10 12:38:26;;;;;;;5.30;3.13;;;32.00;32.80;;;;;;5080718;28;20523;-68
2023/06/10 12:40:53;;;;;;;5.28;3.65;;;31.80;33.20;;;;;;5080545;28;20285;-68
2023/06/10 12:43:22;;;;;;;6.32;4.07;;;31.80;33.30;;;;;;5082551;28;20047;-68
2023/06/10 12:45:49;;;;;;;4.57;3.20;;;31.80;33.00;;;;;;5084326;28;20055;-68